Time;durP1;ratioP1;P1;durP2;ratioP2;P2;SDS_P1;SDS_P2;PMS_P1;PMS_P2;Temp;Humidity;BMP_temperature;BMP_pressure;BME280_temperature;BME280_humidity;BME280_pressure;Samples;Min_cycle;Max_cycle;Signal;HPM_P1;HPM_P2
2024/01/25 00:00:08;;;;;;;2.60;1.60;;;;;;;19.09;46.39;98430.38;4991668;28;20218;-28
2024/01/25 00:02:35;;;;;;;1.40;1.30;;;;;;;19.07;46.43;98422.66;4992386;28;20207;-25
2024/01/25 00:05:02;;;;;;;2.17;1.60;;;;;;;19.07;46.58;98430.31;4993246;28;20256;-25
2024/01/25 00:07:29;;;;;;;1.60;1.50;;;;;;;19.01;46.36;98408.75;4992533;28;20585;-27
2024/01/25 00:09:57;;;;;;;3.47;1.70;;;;;;;19.01;46.29;98403.66;4991983;28;20649;-25
2024/01/25 00:12:24;;;;;;;1.40;1.30;;;;;;;19.08;46.57;98421.00;4992670;28;20278;-25
2024/01/25 00:14:52;;;;;;;2.53;1.50;;;;;;;19.09;45.94;98422.75;4992774;28;20258;-31
2024/01/25 00:17:19;;;;;;;1.77;1.40;;;;;;;19.10;46.23;98416.88;4993450;28;20281;-25
2024/01/25 00:19:45;;;;;;;2.10;1.63;;;;;;;19.09;46.15;98416.00;4991162;28;20207;-25
2024/01/25 00:22:12;;;;;;;2.47;1.50;;;;;;;19.11;46.26;98418.63;4992686;28;20290;-28
2024/01/25 00:24:39;;;;;;;1.83;1.67;;;;;;;19.09;46.48;98420.19;4992136;28;20247;-25
2024/01/25 00:27:05;;;;;;;2.50;1.70;;;;;;;19.07;46.40;98422.66;4987531;28;20211;-25
2024/01/25 00:29:32;;;;;;;1.60;1.50;;;;;;;19.09;46.27;98408.34;4993107;28;20195;-25
2024/01/25 00:31:59;;;;;;;1.67;1.50;;;;;;;19.07;46.42;98406.53;4959544;28;20206;-25
2024/01/25 00:34:26;;;;;;;1.83;1.50;;;;;;;19.08;46.18;98400.63;4990566;28;20262;-27
2024/01/25 00:36:54;;;;;;;2.00;1.53;;;;;;;19.07;46.29;98409.94;4992471;28;20206;-25
2024/01/25 00:39:21;;;;;;;1.97;1.50;;;;;;;19.06;46.22;98398.00;4992486;28;20234;-25
2024/01/25 00:41:47;;;;;;;1.47;1.37;;;;;;;19.06;46.33;98402.19;4992042;28;20712;-25
2024/01/25 00:44:14;;;;;;;2.07;1.30;;;;;;;19.07;46.38;98409.06;4991102;28;20301;-25
2024/01/25 00:46:41;;;;;;;1.77;1.67;;;;;;;19.06;46.42;98408.19;4992564;28;20222;-26
2024/01/25 00:49:08;;;;;;;1.63;1.40;;;;;;;19.08;46.29;98408.28;4986870;28;20218;-25
2024/01/25 00:51:36;;;;;;;1.83;1.50;;;;;;;19.04;46.57;98399.56;4991867;28;20205;-27
2024/01/25 00:54:03;;;;;;;1.90;1.60;;;;;;;19.07;46.47;98398.88;4975567;28;20775;-28
2024/01/25 00:56:30;;;;;;;2.17;1.67;;;;;;;19.04;46.40;98385.97;4990891;28;20522;-25
2024/01/25 00:58:56;;;;;;;1.90;1.60;;;;;;;19.11;46.17;98404.22;4990836;28;20871;-25
2024/01/25 01:01:23;;;;;;;1.53;1.43;;;;;;;19.10;46.21;98405.00;4991574;28;20203;-25
2024/01/25 01:03:52;;;;;;;1.97;1.50;;;;;;;19.06;46.13;98398.00;4973880;28;20219;-26
2024/01/25 01:06:20;;;;;;;2.37;1.40;;;;;;;19.10;46.30;98415.19;4975567;28;20238;-26
2024/01/25 01:08:47;;;;;;;2.10;1.43;;;;;;;19.03;46.34;98396.94;4991798;28;20199;-25
2024/01/25 01:11:14;;;;;;;1.50;1.40;;;;;;;19.08;46.04;98413.34;4992030;28;20682;-25
2024/01/25 01:13:40;;;;;;;1.93;1.50;;;;;;;19.09;45.96;98412.56;4991611;28;20375;-31
2024/01/25 01:16:07;;;;;;;1.80;1.53;;;;;;;19.07;46.54;98403.97;4991667;28;20223;-32
2024/01/25 01:18:33;;;;;;;1.70;1.60;;;;;;;19.08;46.47;98418.47;4992107;28;20654;-28
2024/01/25 01:21:00;;;;;;;1.70;1.60;;;;;;;19.07;46.41;98415.03;4992146;28;20250;-25
2024/01/25 01:23:27;;;;;;;1.97;1.43;;;;;;;19.08;46.06;98414.25;4991356;28;20226;-27
2024/01/25 01:25:53;;;;;;;2.93;1.63;;;;;;;19.08;46.23;98416.78;4973167;28;20199;-30
2024/01/25 01:28:20;;;;;;;1.97;1.40;;;;;;;19.08;46.20;98426.09;4994191;28;20254;-31
2024/01/25 01:30:47;;;;;;;1.63;1.50;;;;;;;19.09;46.35;98431.28;4991333;28;20727;-25
2024/01/25 01:33:13;;;;;;;2.43;1.63;;;;;;;19.09;46.48;98425.28;4992229;28;20266;-25
2024/01/25 01:35:40;;;;;;;2.80;1.80;;;;;;;19.08;46.19;98421.91;4991350;28;20776;-25
2024/01/25 01:38:07;;;;;;;1.80;1.57;;;;;;;19.12;46.56;98433.09;4991652;28;20267;-26
2024/01/25 01:40:33;;;;;;;2.60;1.57;;;;;;;19.10;46.08;98420.28;4989460;28;20657;-25
2024/01/25 01:43:01;;;;;;;1.60;1.50;;;;;;;19.10;46.13;98425.38;4991594;28;20713;-25
2024/01/25 01:45:28;;;;;;;1.73;1.50;;;;;;;19.09;46.23;98413.44;4991484;28;20230;-25
2024/01/25 01:47:55;;;;;;;2.50;1.47;;;;;;;19.08;46.36;98408.28;4991747;28;20582;-25
2024/01/25 01:50:22;;;;;;;1.50;1.40;;;;;;;19.09;46.37;98408.34;4974395;28;20850;-25
2024/01/25 01:52:49;;;;;;;3.27;1.90;;;;;;;18.98;46.33;98388.22;5006442;28;20231;-32
2024/01/25 01:55:19;;;;;;;1.77;1.50;;;;;;;19.07;46.30;98393.78;4991511;28;20652;-25
2024/01/25 01:57:46;;;;;;;1.73;1.40;;;;;;;19.09;46.35;98390.50;4991356;28;20203;-25
2024/01/25 02:00:13;;;;;;;1.43;1.33;;;;;;;19.09;46.36;98389.63;4958816;28;20211;-25
2024/01/25 02:02:39;;;;;;;1.83;1.33;;;;;;;19.09;46.48;98390.50;4958294;28;20203;-25
2024/01/25 02:05:06;;;;;;;1.60;1.40;;;;;;;19.02;46.43;98372.28;4974020;28;20245;-25
2024/01/25 02:07:32;;;;;;;1.60;1.50;;;;;;;19.10;46.12;98374.41;4990749;28;20202;-25
2024/01/25 02:09:59;;;;;;;2.43;1.77;;;;;;;19.04;46.16;98353.72;4973914;28;20586;-25
2024/01/25 02:12:26;;;;;;;1.90;1.43;;;;;;;19.08;46.40;98368.38;4991647;28;20573;-27
2024/01/25 02:14:52;;;;;;;1.67;1.40;;;;;;;19.10;46.35;98366.78;4991506;28;20347;-25
2024/01/25 02:17:19;;;;;;;1.73;1.47;;;;;;;19.12;46.36;98375.38;4991402;28;20226;-25
2024/01/25 02:19:46;;;;;;;1.77;1.40;;;;;;;19.12;46.95;98371.94;4991252;28;20210;-25
2024/01/25 02:22:16;;;;;;;1.40;1.30;;;;;;;19.12;46.06;98369.41;4990926;28;20196;-27
2024/01/25 02:24:43;;;;;;;1.50;1.40;;;;;;;19.13;45.69;98384.78;4990278;28;20218;-25
2024/01/25 02:27:10;;;;;;;1.97;1.57;;;;;;;19.08;45.92;98381.13;4991249;28;20195;-25
2024/01/25 02:29:37;;;;;;;1.83;1.33;;;;;;;19.15;46.88;98390.84;4991428;28;20657;-25
2024/01/25 02:32:04;;;;;;;2.00;1.60;;;;;;;19.14;46.05;98383.09;4991549;28;20326;-25
2024/01/25 02:34:30;;;;;;;1.73;1.47;;;;;;;19.18;46.55;98390.09;4991081;28;20721;-25
2024/01/25 02:36:57;;;;;;;1.93;1.53;;;;;;;19.19;46.10;98392.72;4991174;28;20207;-27
2024/01/25 02:39:23;;;;;;;3.50;1.63;;;;;;;19.11;45.98;98386.38;4991132;28;20199;-25
2024/01/25 02:41:50;;;;;;;2.17;1.30;;;;;;;19.21;45.63;98387.72;4991597;28;20748;-25
2024/01/25 02:44:17;;;;;;;2.50;1.53;;;;;;;19.23;45.75;98389.56;4994537;28;20309;-27
2024/01/25 02:46:44;;;;;;;2.20;1.50;;;;;;;19.23;45.79;98384.47;4994057;28;20195;-26
2024/01/25 02:49:11;;;;;;;2.43;1.90;;;;;;;19.22;45.79;98379.28;4994611;28;20199;-25
2024/01/25 02:51:38;;;;;;;2.03;1.60;;;;;;;19.26;45.87;98381.19;4994051;28;20282;-25
2024/01/25 02:54:05;;;;;;;2.40;1.53;;;;;;;19.26;45.75;98379.53;4994274;28;20577;-25
2024/01/25 02:56:34;;;;;;;3.40;1.87;;;;;;;19.27;45.76;98386.41;4994251;28;20223;-26
2024/01/25 02:59:01;;;;;;;1.67;1.53;;;;;;;19.27;45.76;98383.84;4994208;28;20286;-25
2024/01/25 03:01:28;;;;;;;2.00;1.60;;;;;;;19.29;45.62;98382.28;4994558;28;20206;-25
2024/01/25 03:03:54;;;;;;;2.10;1.50;;;;;;;19.25;45.53;98376.91;4993953;28;20254;-25
2024/01/25 03:06:21;;;;;;;1.60;1.50;;;;;;;19.31;45.13;98380.69;4993918;28;20195;-25
2024/01/25 03:08:48;;;;;;;1.63;1.53;;;;;;;19.31;45.16;98382.34;4996550;28;20210;-25
2024/01/25 03:11:14;;;;;;;1.60;1.50;;;;;;;19.33;45.74;98386.72;4993967;28;20238;-27
2024/01/25 03:13:41;;;;;;;1.50;1.40;;;;;;;19.32;45.49;98387.53;4993944;28;20222;-25
2024/01/25 03:16:07;;;;;;;1.60;1.50;;;;;;;19.31;45.75;98388.34;4993176;28;20226;-25
2024/01/25 03:18:34;;;;;;;3.33;1.60;;;;;;;19.34;45.53;98397.81;4994290;28;20551;-25
2024/01/25 03:21:01;;;;;;;1.70;1.60;;;;;;;19.33;45.47;98402.00;4994007;28;20291;-28
2024/01/25 03:23:27;;;;;;;1.43;1.30;;;;;;;19.35;45.66;98405.53;4993635;28;20219;-25
2024/01/25 03:25:54;;;;;;;2.20;1.67;;;;;;;19.35;45.54;98407.19;4993654;28;20255;-31
2024/01/25 03:28:20;;;;;;;3.80;1.70;;;;;;;19.37;45.39;98415.81;4993888;28;20230;-27
2024/01/25 03:30:47;;;;;;;2.03;1.60;;;;;;;19.36;45.51;98414.06;4993960;28;20270;-26
2024/01/25 03:33:14;;;;;;;1.83;1.50;;;;;;;19.31;46.11;98402.75;4993578;28;20281;-25
2024/01/25 03:35:41;;;;;;;2.43;1.67;;;;;;;19.33;45.44;98406.25;4993668;28;20705;-25
2024/01/25 03:38:07;;;;;;;1.30;1.20;;;;;;;19.37;45.30;98414.13;4993725;28;20238;-27
2024/01/25 03:40:34;;;;;;;2.30;1.47;;;;;;;19.37;45.55;98415.81;4993747;28;20230;-25
2024/01/25 03:43:00;;;;;;;1.60;1.50;;;;;;;19.39;45.45;98416.78;4993402;28;20285;-25
2024/01/25 03:45:44;;;;;;;2.10;1.70;;;;;;;19.34;45.52;98408.88;4993888;28;20206;-26
2024/01/25 03:48:11;;;;;;;2.03;1.70;;;;;;;19.35;45.45;98419.94;4993419;28;20253;-25
2024/01/25 03:50:38;;;;;;;3.17;1.80;;;;;;;19.39;45.48;98435.47;4993655;28;20290;-25
2024/01/25 03:53:06;;;;;;;1.87;1.50;;;;;;;19.39;45.50;98438.00;4992437;28;20223;-25
2024/01/25 03:55:33;;;;;;;1.73;1.50;;;;;;;19.39;45.29;98442.25;4992743;28;20225;-25
2024/01/25 03:57:59;;;;;;;2.50;1.63;;;;;;;19.40;45.49;98434.69;4993168;28;20202;-25
2024/01/25 04:00:26;;;;;;;1.60;1.37;;;;;;;19.42;45.76;98434.78;4993104;28;20290;-25
2024/01/25 04:02:53;;;;;;;2.73;1.70;;;;;;;19.35;45.28;98418.28;4992878;28;20222;-25
2024/01/25 04:05:19;;;;;;;2.47;1.63;;;;;;;19.36;45.47;98427.66;4991540;28;20281;-25
2024/01/25 04:07:46;;;;;;;2.40;1.60;;;;;;;19.43;45.41;98439.06;4992418;28;20206;-25
2024/01/25 04:10:13;;;;;;;2.80;1.93;;;;;;;19.21;45.36;98403.00;4993376;28;20207;-26
2024/01/25 04:12:39;;;;;;;2.23;1.70;;;;;;;19.43;45.32;98444.16;4992666;28;20202;-25
2024/01/25 04:15:06;;;;;;;2.60;1.50;;;;;;;19.43;45.34;98450.16;4992745;28;20209;-25
2024/01/25 04:17:33;;;;;;;1.50;1.37;;;;;;;19.44;45.48;98453.53;4993050;28;20203;-27
2024/01/25 04:19:59;;;;;;;1.67;1.47;;;;;;;19.44;45.34;98448.44;4991502;28;20214;-25
2024/01/25 04:22:26;;;;;;;2.00;1.60;;;;;;;19.44;45.42;98451.00;4990997;28;20210;-25
2024/01/25 04:24:53;;;;;;;2.60;1.50;;;;;;;19.36;45.29;98437.84;4992155;28;20306;-25
2024/01/25 04:27:19;;;;;;;2.60;1.60;;;;;;;19.40;45.83;98439.78;4991876;28;20199;-27
2024/01/25 04:29:46;;;;;;;2.77;1.67;;;;;;;19.44;45.32;98449.34;4993080;28;20203;-25
2024/01/25 04:32:13;;;;;;;1.60;1.33;;;;;;;19.43;45.36;98450.16;5006397;28;20273;-25
2024/01/25 04:34:40;;;;;;;1.80;1.33;;;;;;;19.45;45.33;98460.41;4992355;28;20262;-26
2024/01/25 04:37:06;;;;;;;2.00;1.50;;;;;;;19.45;45.36;98466.38;4993472;28;20233;-25
2024/01/25 04:39:33;;;;;;;1.70;1.60;;;;;;;19.45;45.44;98468.91;4992353;28;20234;-25
2024/01/25 04:42:00;;;;;;;2.93;1.63;;;;;;;19.45;45.27;98474.03;4992248;28;20203;-26
2024/01/25 04:44:26;;;;;;;1.73;1.30;;;;;;;19.46;45.21;98490.19;4992213;28;20222;-26
2024/01/25 04:46:54;;;;;;;2.30;1.70;;;;;;;19.30;45.21;98454.53;4971747;28;20604;-25
2024/01/25 04:49:21;;;;;;;2.70;1.80;;;;;;;19.45;45.38;98484.22;4991685;28;20230;-25
2024/01/25 04:51:48;;;;;;;2.00;1.80;;;;;;;19.47;45.21;98486.84;4992368;28;20225;-25
2024/01/25 04:54:15;;;;;;;2.17;1.60;;;;;;;19.46;45.33;98487.66;5005613;28;20682;-25
2024/01/25 04:56:42;;;;;;;2.10;1.90;;;;;;;19.44;45.28;98495.22;4992524;28;20305;-25
2024/01/25 04:59:08;;;;;;;2.97;1.60;;;;;;;19.47;45.18;98497.94;4980849;28;20227;-25
2024/01/25 05:01:35;;;;;;;2.83;1.83;;;;;;;19.47;45.33;98510.69;4991256;28;20202;-27
2024/01/25 05:04:03;;;;;;;2.57;1.70;;;;;;;19.47;45.30;98510.69;4989210;28;20254;-25
2024/01/25 05:06:30;;;;;;;2.40;1.60;;;;;;;19.47;45.08;98512.34;4990418;28;20199;-25
2024/01/25 05:08:57;;;;;;;2.30;1.40;;;;;;;19.47;45.16;98512.34;4990891;28;20206;-25
2024/01/25 05:11:23;;;;;;;2.57;1.70;;;;;;;19.47;45.34;98518.31;4991453;28;20257;-26
2024/01/25 05:13:50;;;;;;;1.70;1.50;;;;;;;19.47;45.19;98515.78;4991840;28;20223;-25
2024/01/25 05:16:17;;;;;;;2.50;1.50;;;;;;;19.46;45.17;98505.50;4991920;28;20227;-25
2024/01/25 05:18:44;;;;;;;2.97;1.60;;;;;;;19.48;45.38;98512.41;4991566;28;20202;-25
2024/01/25 05:21:11;;;;;;;2.10;1.60;;;;;;;19.49;45.20;98508.22;4991047;28;20298;-25
2024/01/25 05:23:37;;;;;;;2.23;1.40;;;;;;;19.49;45.27;98508.22;4991799;28;20701;-25
2024/01/25 05:26:05;;;;;;;2.23;1.40;;;;;;;19.42;45.21;98501.06;4992076;28;20207;-25
2024/01/25 05:28:32;;;;;;;2.40;1.53;;;;;;;19.45;45.27;98503.75;4991782;28;20225;-26
2024/01/25 05:30:59;;;;;;;2.20;1.70;;;;;;;19.47;45.17;98509.78;4990509;28;20207;-25
2024/01/25 05:33:28;;;;;;;2.87;1.90;;;;;;;19.46;45.25;98505.50;4992018;28;20231;-25
2024/01/25 05:35:55;;;;;;;2.07;1.40;;;;;;;19.42;45.11;98511.25;4991841;28;20215;-25
2024/01/25 05:38:22;;;;;;;1.50;1.40;;;;;;;19.43;45.10;98513.00;4992205;28;20250;-26
2024/01/25 05:40:48;;;;;;;1.73;1.53;;;;;;;19.39;45.12;98511.94;4992198;28;20201;-25
2024/01/25 05:43:15;;;;;;;1.57;1.33;;;;;;;19.37;45.25;98518.66;4991692;28;20218;-25
2024/01/25 05:45:43;;;;;;;1.63;1.53;;;;;;;19.34;45.27;98520.16;4990882;28;20274;-25
2024/01/25 05:48:10;;;;;;;1.67;1.30;;;;;;;19.32;45.37;98530.25;4991351;28;20286;-25
2024/01/25 05:50:37;;;;;;;1.53;1.43;;;;;;;19.30;45.71;98528.44;4991740;28;20300;-25
2024/01/25 05:53:03;;;;;;;1.83;1.50;;;;;;;19.27;45.57;98525.72;4992467;28;20226;-26
2024/01/25 05:55:30;;;;;;;1.40;1.30;;;;;;;19.27;45.78;98535.91;4995077;28;20248;-25
2024/01/25 05:57:56;;;;;;;1.73;1.43;;;;;;;19.22;45.85;98535.59;4995475;28;20290;-25
2024/01/25 06:00:23;;;;;;;1.73;1.50;;;;;;;19.23;45.93;98536.50;4992151;28;20764;-28
2024/01/25 06:02:50;;;;;;;1.50;1.40;;;;;;;19.14;45.74;98529.22;4991307;28;20282;-26
2024/01/25 06:05:16;;;;;;;1.37;1.27;;;;;;;19.18;45.95;98537.91;4990093;28;20243;-25
2024/01/25 06:07:43;;;;;;;2.10;1.30;;;;;;;19.20;45.86;98551.63;4991109;28;20202;-25
2024/01/25 06:10:10;;;;;;;1.30;1.20;;;;;;;19.14;46.17;98548.72;4994532;28;20649;-25
2024/01/25 06:12:37;;;;;;;2.40;1.50;;;;;;;19.13;46.00;98562.28;4992006;28;20625;-26
2024/01/25 06:15:04;;;;;;;1.60;1.40;;;;;;;19.13;46.06;98573.31;4991315;28;20793;-28
2024/01/25 06:17:31;;;;;;;2.20;1.40;;;;;;;19.05;46.14;98563.50;4994462;28;20226;-26
2024/01/25 06:19:57;;;;;;;1.67;1.57;;;;;;;19.10;46.21;98582.50;4995805;28;20210;-25
2024/01/25 06:22:24;;;;;;;2.03;1.50;;;;;;;18.99;46.46;98571.72;4995446;28;20215;-25
2024/01/25 06:24:51;;;;;;;2.53;1.70;;;;;;;19.05;46.20;98587.34;4994258;28;20219;-25
2024/01/25 06:27:17;;;;;;;2.17;1.60;;;;;;;19.06;46.06;98594.16;4995522;28;20199;-25
2024/01/25 06:29:44;;;;;;;1.33;1.23;;;;;;;19.06;46.16;98603.47;4995626;28;20261;-25
2024/01/25 06:32:10;;;;;;;1.70;1.60;;;;;;;19.07;46.13;98605.25;4993922;28;20199;-25
2024/01/25 06:34:44;;;;;;;1.70;1.40;;;;;;;19.06;46.59;98612.00;4994732;28;20313;-25
2024/01/25 06:37:15;;;;;;;2.27;1.50;;;;;;;19.04;46.07;98599.97;4994233;28;20250;-25
2024/01/25 06:39:42;;;;;;;3.00;1.60;;;;;;;19.06;46.05;98603.47;4994611;28;20206;-25
2024/01/25 06:42:08;;;;;;;2.53;1.50;;;;;;;19.07;46.19;98612.91;4999726;28;20211;-25
2024/01/25 06:44:35;;;;;;;2.07;1.63;;;;;;;19.04;45.80;98618.69;4994443;28;20253;-25
2024/01/25 06:47:01;;;;;;;2.40;1.53;;;;;;;19.02;45.80;98627.03;4993919;28;20688;-26
2024/01/25 06:49:28;;;;;;;4.33;2.10;;;;;;;18.99;45.76;98615.00;4996283;28;20231;-25
2024/01/25 06:51:55;;;;;;;6.87;2.90;;;;;;;19.02;44.99;98629.59;4992186;28;20203;-25
2024/01/25 06:54:21;;;;;;;8.30;3.43;;;;;;;18.95;43.63;98625.81;4994857;28;20234;-25
2024/01/25 06:56:51;;;;;;;11.67;3.47;;;;;;;18.98;44.19;98632.75;4989634;28;20689;-25
2024/01/25 06:59:17;;;;;;;6.70;2.90;;;;;;;18.95;44.63;98615.59;4993625;28;20210;-25
2024/01/25 07:01:44;;;;;;;5.40;2.73;;;;;;;18.97;45.14;98616.59;4992327;28;20222;-26
2024/01/25 07:04:12;;;;;;;10.47;3.20;;;;;;;18.97;45.29;98630.97;4993011;28;20226;-26
2024/01/25 07:06:39;;;;;;;7.43;2.80;;;;;;;18.98;45.55;98638.72;4987974;28;20214;-26
2024/01/25 07:09:06;;;;;;;6.40;3.00;;;;;;;18.98;45.52;98625.97;4988023;28;20456;-25
2024/01/25 07:11:33;;;;;;;4.00;2.33;;;;;;;18.99;45.46;98617.56;4990969;28;20282;-26
2024/01/25 07:13:59;;;;;;;5.80;3.03;;;;;;;18.98;45.73;98612.38;4991435;28;20235;-25
2024/01/25 07:16:26;;;;;;;5.83;2.87;;;;;;;18.99;45.64;98612.47;4969807;28;20253;-28
2024/01/25 07:18:53;;;;;;;6.67;2.83;;;;;;;18.96;45.61;98619.94;4990677;28;20199;-26
2024/01/25 07:21:19;;;;;;;4.80;2.70;;;;;;;18.91;45.55;98600.06;4992494;28;20734;-25
2024/01/25 07:23:46;;;;;;;4.00;2.57;;;;;;;18.97;45.44;98606.41;4999441;28;20222;-25
2024/01/25 07:26:19;;;;;;;6.37;2.37;;;;;;;18.96;45.66;98602.09;4994556;28;20269;-25
2024/01/25 07:28:46;;;;;;;5.13;2.37;;;;;;;18.97;45.85;98602.97;4989708;28;20230;-26
2024/01/25 07:31:13;;;;;;;4.40;2.43;;;;;;;18.97;45.61;98613.16;4990339;28;20234;-28
2024/01/25 07:33:39;;;;;;;4.53;2.27;;;;;;;18.94;45.77;98603.69;4993668;28;20231;-27
2024/01/25 07:36:06;;;;;;;4.50;2.50;;;;;;;18.92;45.90;98596.75;4991424;28;20684;-25
2024/01/25 07:38:33;;;;;;;5.00;2.50;;;;;;;18.97;45.83;98601.31;4990711;28;20203;-25
2024/01/25 07:41:00;;;;;;;5.40;2.53;;;;;;;18.98;45.83;98594.53;4990956;28;20297;-28
2024/01/25 07:43:26;;;;;;;4.30;2.10;;;;;;;18.98;46.23;98607.28;4990654;28;20223;-26
2024/01/25 07:45:53;;;;;;;3.57;2.13;;;;;;;19.00;45.81;98615.88;4990966;28;20673;-25
2024/01/25 07:48:20;;;;;;;5.73;2.30;;;;;;;18.96;45.63;98611.41;4990670;28;20209;-27
2024/01/25 07:50:47;;;;;;;5.20;2.37;;;;;;;18.93;45.79;98618.88;4991244;28;20203;-26
2024/01/25 07:53:16;;;;;;;3.43;2.10;;;;;;;18.98;45.64;98625.97;4990242;28;20242;-26
2024/01/25 07:55:42;;;;;;;4.33;2.37;;;;;;;18.97;45.34;98636.06;4990561;28;20234;-26
2024/01/25 07:58:10;;;;;;;6.23;2.40;;;;;;;18.93;45.89;98631.59;4990195;28;20225;-25
2024/01/25 08:00:36;;;;;;;4.17;2.43;;;;;;;18.96;46.05;98639.44;4987040;28;20592;-27
2024/01/25 08:03:03;;;;;;;4.57;2.43;;;;;;;18.96;45.89;98630.13;4987465;28;20258;-29
2024/01/25 08:05:30;;;;;;;3.10;2.10;;;;;;;18.96;45.81;98631.78;4989120;28;20207;-26
2024/01/25 08:08:10;;;;;;;5.77;2.37;;;;;;;18.94;46.08;98626.59;4988296;28;20242;-26
2024/01/25 08:10:37;;;;;;;3.90;2.20;;;;;;;18.94;46.38;98629.16;4988800;28;20237;-26
2024/01/25 08:13:03;;;;;;;2.43;1.90;;;;;;;18.97;45.88;98636.06;4988663;28;20237;-25
2024/01/25 08:15:33;;;;;;;2.83;1.90;;;;;;;18.98;46.13;98645.50;4987446;28;20206;-31
2024/01/25 08:18:00;;;;;;;3.43;1.97;;;;;;;18.97;45.97;98648.81;4987674;28;20227;-29
2024/01/25 08:20:27;;;;;;;4.80;2.13;;;;;;;18.98;46.08;98653.13;4988702;28;20685;-26
2024/01/25 08:22:54;;;;;;;4.40;2.13;;;;;;;18.97;46.05;98659.91;4988576;28;20242;-25
2024/01/25 08:25:21;;;;;;;3.77;2.00;;;;;;;18.97;45.77;98659.00;4988454;28;20211;-27
2024/01/25 08:27:47;;;;;;;3.77;2.10;;;;;;;18.90;45.98;98656.91;4988199;28;20286;-30
2024/01/25 08:30:14;;;;;;;3.83;2.33;;;;;;;18.96;46.04;98663.25;4986828;28;20210;-29
2024/01/25 08:32:41;;;;;;;3.70;2.00;;;;;;;18.96;45.87;98664.91;4989058;28;20310;-27
2024/01/25 08:35:08;;;;;;;3.23;2.30;;;;;;;18.96;45.90;98670.00;4988586;28;20211;-25
2024/01/25 08:37:37;;;;;;;3.27;2.13;;;;;;;18.93;46.07;98665.63;4989064;28;20306;-27
2024/01/25 08:40:06;;;;;;;2.73;2.10;;;;;;;18.95;46.04;98665.69;4989146;28;20211;-27
2024/01/25 08:42:33;;;;;;;3.50;2.10;;;;;;;18.94;46.11;98667.34;4989718;28;20289;-25
2024/01/25 08:44:59;;;;;;;3.57;2.00;;;;;;;18.95;45.98;98664.00;4988940;28;20305;-25
2024/01/25 08:47:26;;;;;;;2.50;1.90;;;;;;;18.89;46.21;98652.63;4989545;28;20423;-25
2024/01/25 08:49:52;;;;;;;4.07;2.10;;;;;;;18.90;46.02;98659.44;4989835;28;20286;-25
2024/01/25 08:52:19;;;;;;;2.97;1.80;;;;;;;18.95;45.95;98675.88;4987519;28;20214;-25
2024/01/25 08:54:46;;;;;;;5.03;2.33;;;;;;;18.96;46.10;98678.53;4988148;28;20234;-27
2024/01/25 08:57:15;;;;;;;2.77;1.70;;;;;;;18.96;45.77;98686.16;4989387;28;20361;-26
2024/01/25 08:59:41;;;;;;;3.57;2.20;;;;;;;18.95;46.04;98676.75;4988647;28;20293;-28
2024/01/25 09:02:08;;;;;;;2.53;1.80;;;;;;;18.96;46.14;98680.19;4988342;28;20562;-26
2024/01/25 09:04:35;;;;;;;3.40;2.23;;;;;;;18.96;46.01;98686.16;4988772;28;20230;-29
2024/01/25 09:07:03;;;;;;;3.30;2.07;;;;;;;18.94;46.22;98679.22;4988251;28;20209;-28
2024/01/25 09:09:30;;;;;;;4.27;2.00;;;;;;;18.95;46.07;98688.63;4988131;28;20659;-25
2024/01/25 09:11:56;;;;;;;3.57;2.00;;;;;;;18.95;45.88;98681.00;4987197;28;20269;-28
2024/01/25 09:14:23;;;;;;;5.00;2.40;;;;;;;18.93;46.21;98691.09;4986217;28;20222;-28
2024/01/25 09:16:50;;;;;;;2.67;2.00;;;;;;;18.93;45.69;98698.72;4987354;28;20215;-27
2024/01/25 09:19:17;;;;;;;3.07;1.93;;;;;;;18.88;46.21;98697.56;4987439;28;20214;-25
2024/01/25 09:21:44;;;;;;;3.27;2.10;;;;;;;18.94;46.06;98707.22;4987804;28;20209;-30
2024/01/25 09:24:10;;;;;;;3.23;2.03;;;;;;;18.90;45.83;98702.75;4987605;28;20319;-25
2024/01/25 09:26:37;;;;;;;2.90;1.90;;;;;;;18.95;45.99;98716.66;4989534;28;20249;-26
2024/01/25 09:29:04;;;;;;;2.73;1.93;;;;;;;18.94;45.89;98717.41;4993816;28;20679;-25
2024/01/25 09:31:31;;;;;;;2.27;1.90;;;;;;;18.95;45.97;98717.50;4988923;28;20273;-29
2024/01/25 09:33:58;;;;;;;2.33;1.90;;;;;;;18.89;46.15;98709.50;4988640;28;20235;-27
2024/01/25 09:36:25;;;;;;;2.87;2.20;;;;;;;18.96;45.93;98720.94;4988318;28;20203;-26
2024/01/25 09:38:52;;;;;;;3.17;2.00;;;;;;;18.98;46.03;98721.91;4988233;28;20222;-25
2024/01/25 09:41:19;;;;;;;5.30;2.20;;;;;;;18.97;45.83;98726.13;4985425;28;20589;-26
2024/01/25 09:43:46;;;;;;;3.40;1.90;;;;;;;18.96;46.14;98723.50;4987908;28;20223;-25
2024/01/25 09:46:13;;;;;;;3.23;2.00;;;;;;;18.89;45.94;98713.75;4959014;28;20210;-26
2024/01/25 09:48:43;;;;;;;2.57;2.10;;;;;;;19.01;45.98;98728.06;4989216;28;20207;-25
2024/01/25 09:51:10;;;;;;;4.37;2.23;;;;;;;19.02;46.14;98726.41;4988471;28;20249;-28
2024/01/25 09:53:37;;;;;;;2.80;2.17;;;;;;;18.93;46.22;98719.09;4988570;28;20222;-29
2024/01/25 09:56:07;;;;;;;3.37;2.10;;;;;;;18.99;46.03;98733.84;4992171;28;20217;-29
2024/01/25 09:58:41;;;;;;;3.87;1.87;;;;;;;18.99;46.04;98737.31;4987262;28;20693;-25
2024/01/25 10:01:10;;;;;;;3.67;1.90;;;;;;;18.97;46.29;98735.44;4995251;28;20210;-25
2024/01/25 10:03:37;;;;;;;3.57;2.20;;;;;;;18.96;46.04;98739.66;4995781;28;20253;-25
2024/01/25 10:06:05;;;;;;;2.70;1.70;;;;;;;18.97;46.05;98743.06;4991451;28;20550;-25
2024/01/25 10:08:32;;;;;;;5.10;2.40;;;;;;;19.00;46.18;98750.91;4974494;28;20230;-26
2024/01/25 10:10:59;;;;;;;3.50;2.07;;;;;;;18.90;45.95;98730.78;4990035;28;20211;-27
2024/01/25 10:13:28;;;;;;;3.57;2.00;;;;;;;19.01;46.07;98747.56;5001945;28;20761;-36
2024/01/25 10:15:56;;;;;;;2.83;1.90;;;;;;;19.01;45.94;98743.34;4991647;28;20588;-25
2024/01/25 10:18:23;;;;;;;2.80;1.93;;;;;;;19.00;46.02;98754.34;5000636;28;20237;-25
2024/01/25 10:20:56;;;;;;;2.43;2.00;;;;;;;19.00;46.27;98750.91;4991664;28;20717;-35
2024/01/25 10:23:25;;;;;;;3.97;1.93;;;;;;;18.99;46.14;98752.59;4992066;28;20293;-25
2024/01/25 10:25:52;;;;;;;1.73;1.60;;;;;;;18.96;45.96;98757.50;4991874;28;20213;-27
2024/01/25 10:28:19;;;;;;;2.60;1.70;;;;;;;18.99;46.25;98751.69;4990914;28;20290;-25
2024/01/25 10:30:46;;;;;;;2.30;1.90;;;;;;;18.98;45.70;98752.50;4990505;28;20207;-26
2024/01/25 10:33:13;;;;;;;2.77;1.90;;;;;;;18.93;46.10;98742.03;4988722;28;20227;-25
2024/01/25 10:35:41;;;;;;;1.90;1.70;;;;;;;18.90;45.96;98728.22;4988683;28;20385;-26
2024/01/25 10:38:08;;;;;;;3.60;1.80;;;;;;;18.96;46.15;98734.56;4958613;28;20229;-26
2024/01/25 10:40:34;;;;;;;3.57;2.30;;;;;;;18.97;46.15;98732.88;4960593;28;20926;-25
2024/01/25 10:43:01;;;;;;;2.37;1.60;;;;;;;18.96;45.99;98736.22;4956197;28;20234;-27
2024/01/25 10:45:28;;;;;;;1.87;1.67;;;;;;;18.97;46.06;98730.34;4986580;28;20210;-25
2024/01/25 10:47:55;;;;;;;3.00;1.87;;;;;;;18.94;46.01;98723.41;4974790;28;20748;-25
2024/01/25 10:50:21;;;;;;;2.17;1.50;;;;;;;18.93;46.46;98731.84;4951198;28;20210;-26
2024/01/25 10:52:49;;;;;;;2.33;1.73;;;;;;;18.98;45.99;98727.03;4991765;28;20238;-27
2024/01/25 10:55:15;;;;;;;2.37;1.53;;;;;;;18.97;45.97;98722.69;4963579;28;20293;-25
2024/01/25 10:57:44;;;;;;;4.60;1.87;;;;;;;18.99;46.12;98716.91;4971009;28;20648;-27
2024/01/25 11:00:15;;;;;;;2.20;1.70;;;;;;;19.00;46.22;98712.69;4989425;28;20596;-28
2024/01/25 11:02:42;;;;;;;2.40;1.80;;;;;;;18.93;46.08;98693.63;4989866;28;20724;-25
2024/01/25 11:05:12;;;;;;;1.87;1.70;;;;;;;19.00;46.05;98699.94;4991354;28;20636;-27
2024/01/25 11:07:58;;;;;;;3.00;1.80;;;;;;;19.00;46.10;98693.19;4991236;28;20643;-25
2024/01/25 11:10:25;;;;;;;3.07;1.60;;;;;;;18.96;45.95;98675.97;4990953;28;20230;-26
2024/01/25 11:12:55;;;;;;;1.90;1.60;;;;;;;18.97;46.13;98699.75;4990778;28;20211;-26
2024/01/25 11:15:25;;;;;;;3.33;2.23;;;;;;;19.00;45.94;98705.03;4986656;28;20222;-27
2024/01/25 11:17:55;;;;;;;2.40;1.70;;;;;;;18.96;46.22;98706.56;4992700;28;20250;-33
2024/01/25 11:20:22;;;;;;;3.83;1.87;;;;;;;18.99;46.19;98708.38;4990664;28;20269;-27
2024/01/25 11:22:55;;;;;;;3.77;2.30;;;;;;;18.91;46.27;98692.66;4989978;28;20214;-25
2024/01/25 11:25:22;;;;;;;2.50;2.00;;;;;;;18.99;46.12;98698.19;4993621;28;20215;-25
2024/01/25 11:27:52;;;;;;;2.50;1.70;;;;;;;19.00;46.08;98697.38;4992236;28;20559;-25
2024/01/25 11:30:20;;;;;;;2.53;2.00;;;;;;;18.99;46.18;98694.00;4990535;28;20911;-25
2024/01/25 11:32:47;;;;;;;3.10;1.80;;;;;;;18.99;45.87;98686.34;4992857;28;20222;-25